Accueil
METAR-TAF:

METAR-TAF

Aéroports :

Brescia Ghedi, Italie

latitude: 45-25N, longitude: 010-17E, altitude: 102 m

Observation

Le bulletin a été fait il y a 47 minutes, à 16:55 UTC
Température 23°C
Humidité 61%
Pression 1009 hPa
Visibilité 10 km ou plus
Nuages épars à une hauteur de 3800 ft

METAR: LIPL 191655Z /////KT 9999 SCT038 23/15 Q1009 RMK BKN SCT200 VIS MIN 9999 WIND THR31 22002KT WIND THR13 14003KT BLU

Heure: 19:42 (17:42 UTC)

Prévision

Le bulletin a été fait il y a 42 minutes, à 17:00 UTC
Prévision valable du 19 à 18 UTC au 20 à 03 UTC
Vent 6 kt de sud-est
Visibilité 10 km ou plus
Nuages épars à une hauteur de 4000 ft

TAF: LIPL 191700Z 1918/2003 13006KT 9999 SCT040

Observations et prévisions météorologiques de plus de 4000 aéroports (messages METAR et TAF).

Les stations disponibles sont représentées par des disques jaunes et rouges sur la carte.

Passer la souris dessus pour voir le nom de la station.

Cliquer dessus pour voir les observations et prévisions météorologiques.

Pour changer de carte: cliquez sur les boutons verts avec une croix noire pour zoomer, sur le bouton vert avec un tiret pour effectuer un zoom arrière, ou sur les flèches vertes pour les cartes adjacentes.


METAR-TAF: